Weerspreuk van de dag: Is het weer in Mei te mooi, dan krijgt de schuur maar weinig hooi.
Het weer levert geen direct gevaar op.    Er zijn geen waarschuwingen afgegeven.


Onweer radar Meer informatie blitzortung!


Regen radar Meer informatie rain snow radar


Bekijk deze sites ook eens:

FPL Automotive (TIP)

Autostekkers.nl (TIP)

Over Luyksgestel

De Kempen, mijn omgeving

BOL.com

Weerstation Noordbergum

Inktweb

Weerstation Hapert

Weerstation Hoogeloon

Weerstation Son&Breugel

Weerstation Castaert

Smartphonehoesjes

Weerstation Tilburg Reeshof

Weerstation Scheulder

Weerverwachting Samos

Samos actueel

Weerwoord (forum)

Griekenlandforum

Vakantie naar Samos

Zomerzon

Canon

Beleef de lente

Wolven in Nederland



METAR rapporten vliegvelden

   
EBAW - Antwerp
Gewijzigd: 20-05-2019 01:50
Nevel, Bewolking  
Nevel, Bewolking  
   Wind: Noorden 11.1 km/h
Wind: Noorden 11.1 km/h
Temperatuur: 12°C
Dauwpunt: 12°C
Vochtigheid: 100%
Barometer: 1007 hPa
Bewolking: Bewolking
Zicht: 2 km
Bewolking: Bewolking 200 ft
EBAW 192350Z AUTO 35006KT 320V020 2300 BR OVC002/// 12/12 Q1007
EBLG - Liège
Gewijzigd: 20-05-2019 01:50
Mist, Grotendeels bewolkt  
Mist, Grotendeels bewolkt  
   Wind: NW 7.4 km/h
Wind: NW 7.4 km/h
Temperatuur: 12°C
Dauwpunt: 12°C
Vochtigheid: 100%
Barometer: 1007 hPa
Bewolking: Grotendeels bewolkt
Zicht: 0 km
Bewolking: Grotendeels bewolkt 100 ft,
Grotendeels bewolkt 200 ft
EBLG 192350Z 31004KT 270V350 0150 R22L/0375N R22R/0350N R04R/0375N FG BKN001 BKN002 12/12 Q1007 TEMPO BKN002
EBCV - Mons/Bergen
Gewijzigd: 20-05-2019 01:55
Nevel, Bewolking  
Nevel, Bewolking  
   Wind: NNW 13 km/h
Wind: NNW 13 km/h
Temperatuur: 11°C
Dauwpunt: 11°C
Vochtigheid: 100%
Barometer: 1008 hPa
Bewolking: Bewolking
Zicht: 1 km
Bewolking: Bewolking 200 ft
EBCV 192355Z AUTO 33007KT 1200 BR OVC002/// 11/11 Q1008 AMB
EHBK - Maastricht
Gewijzigd: 20-05-2019 01:55
Nevel, Bewolking  
Nevel, Bewolking  
   Wind: Westen 7.4 km/h
Wind: Westen 7.4 km/h
Temperatuur: 13°C
Dauwpunt: 12°C
Vochtigheid: 94%
Barometer: 1006 hPa
Bewolking: Bewolking
Zicht: 1 km
Bewolking: Grotendeels bewolkt 100 ft,
Bewolking 200 ft
EHBK 192355Z AUTO 28004KT 230V350 1400 R21/P2000N BR BKN001 OVC002 13/12 Q1006
ELLX - Luxemburg
Gewijzigd: 20-05-2019 01:50
Helder  
Helder  
   Wind: NNW 11.1 km/h
Wind: NNW 11.1 km/h
Temperatuur: 12°C
Dauwpunt: 11°C
Vochtigheid: 94%
Barometer: 1005 hPa
Bewolking: Helder
Zicht: 8 km
Bewolking: Helder
ELLX 192350Z AUTO 34006KT 8000 NCD 12/11 Q1005 NOSIG
EBOS - Oostende
Gewijzigd: 20-05-2019 01:50
Grotendeels bewolkt  
Grotendeels bewolkt  
   Wind: Noorden 16.7 km/h
Wind: Noorden 16.7 km/h
Temperatuur: 11°C
Dauwpunt: 8°C
Vochtigheid: 82%
Barometer: 1009 hPa
Bewolking: Grotendeels bewolkt
Zicht: meer dan 10 km
Bewolking: Grotendeels bewolkt 900 ft,
Grotendeels bewolkt 4000 ft
EBOS 192350Z 35009KT 9999 BKN009 BKN040 11/08 Q1009 NOSIG

Script ontwikkeld door  Saratoga-weather.org Aangepast voor de template door  Weerstation Leuven

U vindt ons ook hier:

Het Weer Aktueel

UK Metoffice

European Weather Network

Weather Underground

AWEKAS



Lekker winkelen zonder zorgen - Gratis verzending en retour